sensor_id;sensor_type;location;lat;lon;timestamp;pressure;altitude;pressure_sealevel;temperature;humidity
66176;BME280;52977;44.816;20.538;2023-01-26T00:01:10;100407.13;;;1.73;77.09
66176;BME280;52977;44.816;20.538;2023-01-26T00:03:37;100409.47;;;1.86;76.90
66176;BME280;52977;44.816;20.538;2023-01-26T00:06:04;100302.22;;;1.22;76.67
66176;BME280;52977;44.816;20.538;2023-01-26T00:08:38;100408.78;;;2.13;75.60
66176;BME280;52977;44.816;20.538;2023-01-26T00:11:05;100350.13;;;1.98;75.60
66176;BME280;52977;44.816;20.538;2023-01-26T00:13:33;100396.84;;;2.48;74.30
66176;BME280;52977;44.816;20.538;2023-01-26T00:16:00;100399.16;;;2.61;73.69
66176;BME280;52977;44.816;20.538;2023-01-26T00:18:26;100403.72;;;2.61;73.63
66176;BME280;52977;44.816;20.538;2023-01-26T00:21:00;100403.91;;;2.54;74.76
66176;BME280;52977;44.816;20.538;2023-01-26T00:23:28;100407.09;;;2.29;74.38
66176;BME280;52977;44.816;20.538;2023-01-26T00:25:55;100401.66;;;2.46;74.30
66176;BME280;52977;44.816;20.538;2023-01-26T00:28:21;100364.38;;;1.76;75.44
66176;BME280;52977;44.816;20.538;2023-01-26T00:30:47;100349.31;;;1.97;75.29
66176;BME280;52977;44.816;20.538;2023-01-26T00:33:13;100393.00;;;2.21;75.03
66176;BME280;52977;44.816;20.538;2023-01-26T00:35:39;100382.66;;;2.13;75.10
66176;BME280;52977;44.816;20.538;2023-01-26T00:38:10;100355.31;;;1.82;76.62
66176;BME280;52977;44.816;20.538;2023-01-26T00:40:37;100382.19;;;1.99;76.11
66176;BME280;52977;44.816;20.538;2023-01-26T00:43:03;100308.22;;;1.46;76.20
66176;BME280;52977;44.816;20.538;2023-01-26T00:45:29;100381.56;;;1.92;76.87
66176;BME280;52977;44.816;20.538;2023-01-26T00:47:55;100364.88;;;2.12;75.62
66176;BME280;52977;44.816;20.538;2023-01-26T00:50:22;100342.72;;;1.88;75.49
66176;BME280;52977;44.816;20.538;2023-01-26T00:52:48;100359.34;;;2.02;76.02
66176;BME280;52977;44.816;20.538;2023-01-26T00:55:14;100355.25;;;1.99;77.02
66176;BME280;52977;44.816;20.538;2023-01-26T00:57:40;100365.31;;;2.26;76.13
66176;BME280;52977;44.816;20.538;2023-01-26T01:00:07;100355.84;;;2.24;75.33
66176;BME280;52977;44.816;20.538;2023-01-26T01:02:34;100346.25;;;2.33;74.87
66176;BME280;52977;44.816;20.538;2023-01-26T01:05:00;100358.84;;;2.05;76.55
66176;BME280;52977;44.816;20.538;2023-01-26T01:07:26;100354.72;;;1.97;76.87
66176;BME280;52977;44.816;20.538;2023-01-26T01:09:52;100334.78;;;2.20;76.36
66176;BME280;52977;44.816;20.538;2023-01-26T01:12:19;100297.41;;;2.24;75.27
66176;BME280;52977;44.816;20.538;2023-01-26T01:14:45;100349.31;;;2.64;74.64
66176;BME280;52977;44.816;20.538;2023-01-26T01:17:12;100303.63;;;2.52;74.11
66176;BME280;52977;44.816;20.538;2023-01-26T01:19:38;100331.50;;;2.63;74.14
66176;BME280;52977;44.816;20.538;2023-01-26T01:22:05;100346.56;;;2.36;75.52
66176;BME280;52977;44.816;20.538;2023-01-26T01:24:32;100339.38;;;2.42;75.46
66176;BME280;52977;44.816;20.538;2023-01-26T01:27:00;100329.31;;;2.60;74.81
66176;BME280;52977;44.816;20.538;2023-01-26T01:29:26;100321.34;;;2.70;74.84
66176;BME280;52977;44.816;20.538;2023-01-26T01:31:52;100304.03;;;2.66;74.34
66176;BME280;52977;44.816;20.538;2023-01-26T01:34:19;100321.94;;;2.77;73.74
66176;BME280;52977;44.816;20.538;2023-01-26T01:36:45;100318.69;;;2.48;74.97
66176;BME280;52977;44.816;20.538;2023-01-26T01:39:12;100260.97;;;2.16;75.39
66176;BME280;52977;44.816;20.538;2023-01-26T01:41:38;100258.50;;;2.15;75.58
66176;BME280;52977;44.816;20.538;2023-01-26T01:44:19;100313.38;;;2.58;75.34
66176;BME280;52977;44.816;20.538;2023-01-26T01:47:00;100266.88;;;2.41;74.72
66176;BME280;52977;44.816;20.538;2023-01-26T01:49:36;100274.69;;;2.42;74.32
66176;BME280;52977;44.816;20.538;2023-01-26T01:52:09;100304.44;;;2.52;74.70
66176;BME280;52977;44.816;20.538;2023-01-26T01:54:42;100313.75;;;2.67;74.71
66176;BME280;52977;44.816;20.538;2023-01-26T01:57:12;100315.94;;;2.70;74.00
66176;BME280;52977;44.816;20.538;2023-01-26T01:59:47;100242.56;;;2.35;74.02
66176;BME280;52977;44.816;20.538;2023-01-26T02:02:17;100303.88;;;2.78;73.19
66176;BME280;52977;44.816;20.538;2023-01-26T02:04:43;100280.91;;;2.70;73.64
66176;BME280;52977;44.816;20.538;2023-01-26T02:07:10;100242.97;;;2.49;72.83
66176;BME280;52977;44.816;20.538;2023-01-26T02:09:38;100298.56;;;2.55;73.61
66176;BME280;52977;44.816;20.538;2023-01-26T02:12:34;100271.91;;;2.32;73.77
66176;BME280;52977;44.816;20.538;2023-01-26T02:15:02;100295.91;;;2.11;74.95
66176;BME280;52977;44.816;20.538;2023-01-26T02:17:29;100263.78;;;1.82;76.11
66176;BME280;52977;44.816;20.538;2023-01-26T02:20:20;100266.34;;;1.94;76.12
66176;BME280;52977;44.816;20.538;2023-01-26T02:28:16;100266.19;;;1.40;77.65
66176;BME280;52977;44.816;20.538;2023-01-26T02:30:43;100258.13;;;1.84;76.89
66176;BME280;52977;44.816;20.538;2023-01-26T02:33:16;100172.75;;;1.57;74.99
66176;BME280;52977;44.816;20.538;2023-01-26T02:35:42;100236.06;;;2.09;73.42
66176;BME280;52977;44.816;20.538;2023-01-26T02:38:08;100255.06;;;2.47;73.79
66176;BME280;52977;44.816;20.538;2023-01-26T02:40:39;100247.34;;;2.28;72.43
66176;BME280;52977;44.816;20.538;2023-01-26T02:43:09;100247.94;;;1.64;74.87
66176;BME280;52977;44.816;20.538;2023-01-26T02:45:37;100246.13;;;1.92;74.17
66176;BME280;52977;44.816;20.538;2023-01-26T02:48:06;100244.03;;;2.21;73.44
66176;BME280;52977;44.816;20.538;2023-01-26T02:50:33;100236.81;;;2.27;72.48
66176;BME280;52977;44.816;20.538;2023-01-26T02:53:00;100225.09;;;2.16;72.67
66176;BME280;52977;44.816;20.538;2023-01-26T02:55:28;100215.31;;;2.32;71.87
66176;BME280;52977;44.816;20.538;2023-01-26T02:57:59;100227.41;;;2.29;71.81
66176;BME280;52977;44.816;20.538;2023-01-26T03:00:31;100179.16;;;1.73;73.31
66176;BME280;52977;44.816;20.538;2023-01-26T03:03:05;100209.94;;;1.82;73.27
66176;BME280;52977;44.816;20.538;2023-01-26T03:05:33;100182.31;;;1.92;73.07
66176;BME280;52977;44.816;20.538;2023-01-26T03:07:59;100198.03;;;1.56;74.15
66176;BME280;52977;44.816;20.538;2023-01-26T03:10:32;100199.56;;;1.69;73.76
66176;BME280;52977;44.816;20.538;2023-01-26T03:12:58;100205.34;;;1.39;75.31
66176;BME280;52977;44.816;20.538;2023-01-26T03:15:24;100213.13;;;1.79;74.95
66176;BME280;52977;44.816;20.538;2023-01-26T03:18:17;100213.22;;;2.12;72.90
66176;BME280;52977;44.816;20.538;2023-01-26T03:21:03;100197.75;;;2.02;72.33
66176;BME280;52977;44.816;20.538;2023-01-26T03:24:00;100196.59;;;2.20;72.17
66176;BME280;52977;44.816;20.538;2023-01-26T03:26:46;100070.84;;;1.39;72.14
66176;BME280;52977;44.816;20.538;2023-01-26T03:29:32;100138.63;;;2.12;71.81
66176;BME280;52977;44.816;20.538;2023-01-26T03:31:59;100150.84;;;1.98;72.20
66176;BME280;52977;44.816;20.538;2023-01-26T03:34:26;100182.66;;;2.28;71.88
66176;BME280;52977;44.816;20.538;2023-01-26T03:36:55;100163.75;;;1.68;73.43
66176;BME280;52977;44.816;20.538;2023-01-26T03:39:22;100174.38;;;1.80;73.06
66176;BME280;52977;44.816;20.538;2023-01-26T03:42:06;100132.97;;;1.37;74.02
66176;BME280;52977;44.816;20.538;2023-01-26T03:44:51;100153.97;;;1.84;73.17
66176;BME280;52977;44.816;20.538;2023-01-26T03:47:37;100163.00;;;2.28;71.65
66176;BME280;52977;44.816;20.538;2023-01-26T03:50:23;100163.63;;;2.35;71.30
66176;BME280;52977;44.816;20.538;2023-01-26T03:55:57;100048.84;;;0.97;73.04
66176;BME280;52977;44.816;20.538;2023-01-26T03:58:48;100142.53;;;1.72;73.04
66176;BME280;52977;44.816;20.538;2023-01-26T04:01:14;100155.31;;;1.60;73.67
66176;BME280;52977;44.816;20.538;2023-01-26T04:03:47;100159.13;;;1.91;72.88
66176;BME280;52977;44.816;20.538;2023-01-26T04:06:32;100145.91;;;1.62;73.88
66176;BME280;52977;44.816;20.538;2023-01-26T04:09:17;100130.31;;;1.42;73.00
66176;BME280;52977;44.816;20.538;2023-01-26T04:11:43;100157.88;;;1.49;74.01
66176;BME280;52977;44.816;20.538;2023-01-26T04:14:11;100154.16;;;1.33;74.04
66176;BME280;52977;44.816;20.538;2023-01-26T04:16:56;100149.28;;;1.30;74.63
66176;BME280;52977;44.816;20.538;2023-01-26T04:19:40;100129.09;;;1.28;74.64
66176;BME280;52977;44.816;20.538;2023-01-26T04:22:25;100106.31;;;1.13;73.53
66176;BME280;52977;44.816;20.538;2023-01-26T04:24:51;100073.50;;;0.72;75.22
66176;BME280;52977;44.816;20.538;2023-01-26T04:27:18;100128.75;;;1.46;74.47
66176;BME280;52977;44.816;20.538;2023-01-26T04:29:44;100148.50;;;1.13;75.36
66176;BME280;52977;44.816;20.538;2023-01-26T04:32:11;100133.13;;;1.08;75.80
66176;BME280;52977;44.816;20.538;2023-01-26T04:34:37;100132.19;;;0.97;76.74
66176;BME280;52977;44.816;20.538;2023-01-26T04:37:10;100069.41;;;0.87;75.87
66176;BME280;52977;44.816;20.538;2023-01-26T04:39:43;100123.84;;;0.99;76.57
66176;BME280;52977;44.816;20.538;2023-01-26T04:42:09;100099.63;;;0.94;76.05
66176;BME280;52977;44.816;20.538;2023-01-26T04:44:36;100143.13;;;1.30;76.63
66176;BME280;52977;44.816;20.538;2023-01-26T04:47:03;100101.41;;;1.10;75.42
66176;BME280;52977;44.816;20.538;2023-01-26T04:49:31;100142.97;;;1.64;74.38
66176;BME280;52977;44.816;20.538;2023-01-26T04:51:57;100140.97;;;1.76;74.15
66176;BME280;52977;44.816;20.538;2023-01-26T04:54:26;100037.88;;;1.26;73.22
66176;BME280;52977;44.816;20.538;2023-01-26T04:56:52;100127.69;;;1.69;74.16
66176;BME280;52977;44.816;20.538;2023-01-26T04:59:19;100126.81;;;1.91;73.27
66176;BME280;52977;44.816;20.538;2023-01-26T05:01:46;100070.88;;;1.44;72.66
66176;BME280;52977;44.816;20.538;2023-01-26T05:04:13;100142.06;;;2.08;72.25
66176;BME280;52977;44.816;20.538;2023-01-26T05:06:43;100102.00;;;1.84;72.41
66176;BME280;52977;44.816;20.538;2023-01-26T05:09:09;100095.69;;;2.00;72.00
66176;BME280;52977;44.816;20.538;2023-01-26T05:11:37;100099.66;;;1.93;71.70
66176;BME280;52977;44.816;20.538;2023-01-26T05:14:33;100126.09;;;2.01;72.80
66176;BME280;52977;44.816;20.538;2023-01-26T05:17:08;100119.78;;;2.12;71.66
66176;BME280;52977;44.816;20.538;2023-01-26T05:19:45;100067.97;;;2.00;71.72
66176;BME280;52977;44.816;20.538;2023-01-26T05:22:19;100111.69;;;2.12;71.82
66176;BME280;52977;44.816;20.538;2023-01-26T05:25:04;100117.53;;;2.04;72.39
66176;BME280;52977;44.816;20.538;2023-01-26T05:27:50;100062.44;;;1.84;71.83
66176;BME280;52977;44.816;20.538;2023-01-26T05:30:17;100101.22;;;2.16;71.80
66176;BME280;52977;44.816;20.538;2023-01-26T05:32:43;100067.00;;;1.84;71.96
66176;BME280;52977;44.816;20.538;2023-01-26T05:35:10;100114.38;;;2.12;72.60
66176;BME280;52977;44.816;20.538;2023-01-26T05:37:36;100110.47;;;1.70;74.15
66176;BME280;52977;44.816;20.538;2023-01-26T05:40:03;100100.78;;;1.69;74.21
66176;BME280;52977;44.816;20.538;2023-01-26T05:42:29;100069.56;;;1.46;75.03
66176;BME280;52977;44.816;20.538;2023-01-26T05:45:06;100093.22;;;1.00;76.70
66176;BME280;52977;44.816;20.538;2023-01-26T05:47:33;100101.66;;;1.09;76.93
66176;BME280;52977;44.816;20.538;2023-01-26T05:49:59;100102.50;;;1.53;76.60
66176;BME280;52977;44.816;20.538;2023-01-26T05:52:29;100053.69;;;1.45;75.21
66176;BME280;52977;44.816;20.538;2023-01-26T05:54:55;100100.28;;;2.00;74.24
66176;BME280;52977;44.816;20.538;2023-01-26T05:57:22;100108.94;;;2.07;73.64
66176;BME280;52977;44.816;20.538;2023-01-26T05:59:53;100092.84;;;1.85;73.77
66176;BME280;52977;44.816;20.538;2023-01-26T06:02:20;100112.09;;;1.71;74.77
66176;BME280;52977;44.816;20.538;2023-01-26T06:04:46;100114.78;;;1.71;75.08
66176;BME280;52977;44.816;20.538;2023-01-26T06:07:12;100115.81;;;1.43;75.74
66176;BME280;52977;44.816;20.538;2023-01-26T06:09:46;100087.59;;;1.01;76.86
66176;BME280;52977;44.816;20.538;2023-01-26T06:12:35;100119.50;;;1.59;76.60
66176;BME280;52977;44.816;20.538;2023-01-26T06:15:15;100117.78;;;1.26;77.42
66176;BME280;52977;44.816;20.538;2023-01-26T06:17:43;100112.22;;;0.93;78.30
66176;BME280;52977;44.816;20.538;2023-01-26T06:20:12;100071.44;;;0.96;77.63
66176;BME280;52977;44.816;20.538;2023-01-26T06:22:42;100092.38;;;1.16;77.97
66176;BME280;52977;44.816;20.538;2023-01-26T06:25:08;100114.41;;;1.35;78.06
66176;BME280;52977;44.816;20.538;2023-01-26T06:27:34;100080.56;;;1.17;77.35
66176;BME280;52977;44.816;20.538;2023-01-26T06:30:06;100105.75;;;1.33;78.02
66176;BME280;52977;44.816;20.538;2023-01-26T06:32:34;100099.66;;;0.99;79.32
66176;BME280;52977;44.816;20.538;2023-01-26T06:35:00;100083.22;;;0.95;79.35
66176;BME280;52977;44.816;20.538;2023-01-26T06:37:26;100113.97;;;1.05;80.25
66176;BME280;52977;44.816;20.538;2023-01-26T06:39:52;100111.59;;;0.86;81.16
66176;BME280;52977;44.816;20.538;2023-01-26T06:42:19;100094.84;;;0.79;81.10
66176;BME280;52977;44.816;20.538;2023-01-26T06:44:45;100046.28;;;0.46;80.98
66176;BME280;52977;44.816;20.538;2023-01-26T06:47:11;100089.22;;;0.80;81.04
66176;BME280;52977;44.816;20.538;2023-01-26T06:49:39;100115.81;;;1.21;79.55
66176;BME280;52977;44.816;20.538;2023-01-26T06:52:29;100116.91;;;1.20;79.76
66176;BME280;52977;44.816;20.538;2023-01-26T06:55:00;100131.66;;;1.17;80.18
66176;BME280;52977;44.816;20.538;2023-01-26T06:57:47;100084.97;;;0.84;80.21
66176;BME280;52977;44.816;20.538;2023-01-26T07:00:39;99980.25;;;-0.06;81.44
66176;BME280;52977;44.816;20.538;2023-01-26T07:03:24;100075.63;;;0.70;82.26
66176;BME280;52977;44.816;20.538;2023-01-26T07:05:49;100115.41;;;0.90;82.26
66176;BME280;52977;44.816;20.538;2023-01-26T07:08:15;100035.88;;;0.33;81.35
66176;BME280;52977;44.816;20.538;2023-01-26T07:10:41;100109.06;;;0.79;82.08
66176;BME280;52977;44.816;20.538;2023-01-26T07:13:06;100101.22;;;0.73;82.20
66176;BME280;52977;44.816;20.538;2023-01-26T07:15:32;100126.53;;;0.77;83.14
66176;BME280;52977;44.816;20.538;2023-01-26T07:17:59;100131.38;;;0.97;82.75
66176;BME280;52977;44.816;20.538;2023-01-26T07:20:25;100088.28;;;0.92;81.73
66176;BME280;52977;44.816;20.538;2023-01-26T07:22:51;100121.81;;;1.06;82.21
66176;BME280;52977;44.816;20.538;2023-01-26T07:25:17;100042.53;;;0.47;81.78
66176;BME280;52977;44.816;20.538;2023-01-26T07:27:44;100117.47;;;0.83;83.58
66176;BME280;52977;44.816;20.538;2023-01-26T07:30:11;100079.97;;;0.54;83.07
66176;BME280;52977;44.816;20.538;2023-01-26T07:32:39;100124.72;;;0.82;84.07
66176;BME280;52977;44.816;20.538;2023-01-26T07:35:06;100044.63;;;0.62;82.97
66176;BME280;52977;44.816;20.538;2023-01-26T07:37:32;100118.16;;;1.34;81.38
66176;BME280;52977;44.816;20.538;2023-01-26T07:39:58;100123.19;;;1.31;82.07
66176;BME280;52977;44.816;20.538;2023-01-26T07:42:24;100123.75;;;1.11;82.73
66176;BME280;52977;44.816;20.538;2023-01-26T07:45:02;100052.38;;;0.42;82.79
66176;BME280;52977;44.816;20.538;2023-01-26T07:47:28;100123.63;;;1.23;82.15
66176;BME280;52977;44.816;20.538;2023-01-26T07:49:54;100089.84;;;0.88;81.62
66176;BME280;52977;44.816;20.538;2023-01-26T07:52:21;100124.28;;;1.08;81.67
66176;BME280;52977;44.816;20.538;2023-01-26T07:54:47;100132.22;;;1.19;81.78
66176;BME280;52977;44.816;20.538;2023-01-26T07:57:13;100136.25;;;1.00;82.97
66176;BME280;52977;44.816;20.538;2023-01-26T07:59:39;100079.28;;;0.64;83.57
66176;BME280;52977;44.816;20.538;2023-01-26T08:02:08;100124.28;;;0.91;83.83
66176;BME280;52977;44.816;20.538;2023-01-26T08:04:34;100090.00;;;0.59;84.76
66176;BME280;52977;44.816;20.538;2023-01-26T08:07:01;100095.03;;;0.55;85.52
66176;BME280;52977;44.816;20.538;2023-01-26T08:09:27;100119.06;;;1.01;85.08
66176;BME280;52977;44.816;20.538;2023-01-26T08:11:55;100120.44;;;1.04;84.34
66176;BME280;52977;44.816;20.538;2023-01-26T08:14:21;100099.53;;;0.89;84.73
66176;BME280;52977;44.816;20.538;2023-01-26T08:16:47;100109.06;;;0.96;84.68
66176;BME280;52977;44.816;20.538;2023-01-26T08:19:12;100037.00;;;0.37;85.16
66176;BME280;52977;44.816;20.538;2023-01-26T08:21:38;100112.47;;;0.92;85.56
66176;BME280;52977;44.816;20.538;2023-01-26T08:24:04;100106.72;;;0.83;86.68
66176;BME280;52977;44.816;20.538;2023-01-26T08:26:31;100094.00;;;0.95;85.18
66176;BME280;52977;44.816;20.538;2023-01-26T08:28:57;100081.06;;;0.92;85.04
66176;BME280;52977;44.816;20.538;2023-01-26T08:31:23;100067.84;;;0.91;85.97
66176;BME280;52977;44.816;20.538;2023-01-26T08:33:50;100099.63;;;1.16;86.25
66176;BME280;52977;44.816;20.538;2023-01-26T08:36:18;100104.63;;;1.07;86.36
66176;BME280;52977;44.816;20.538;2023-01-26T08:38:44;100103.69;;;0.96;88.42
66176;BME280;52977;44.816;20.538;2023-01-26T08:41:11;100024.53;;;0.48;88.71
66176;BME280;52977;44.816;20.538;2023-01-26T08:43:38;100095.78;;;0.90;88.54
66176;BME280;52977;44.816;20.538;2023-01-26T08:46:05;100104.78;;;1.00;89.17
66176;BME280;52977;44.816;20.538;2023-01-26T08:48:31;100097.81;;;1.22;88.06
66176;BME280;52977;44.816;20.538;2023-01-26T08:51:00;100103.69;;;1.18;86.42
66176;BME280;52977;44.816;20.538;2023-01-26T08:53:29;100102.69;;;1.25;86.57
66176;BME280;52977;44.816;20.538;2023-01-26T08:55:56;100057.47;;;0.99;86.10
66176;BME280;52977;44.816;20.538;2023-01-26T08:58:23;100125.56;;;1.05;88.50
66176;BME280;52977;44.816;20.538;2023-01-26T09:00:49;100097.84;;;1.05;88.53
66176;BME280;52977;44.816;20.538;2023-01-26T09:03:15;100033.03;;;1.01;87.30
66176;BME280;52977;44.816;20.538;2023-01-26T09:05:42;100085.19;;;1.22;86.64
66176;BME280;52977;44.816;20.538;2023-01-26T09:08:08;100106.69;;;1.22;88.10
66176;BME280;52977;44.816;20.538;2023-01-26T09:10:38;100084.94;;;1.24;87.39
66176;BME280;52977;44.816;20.538;2023-01-26T09:13:05;100068.34;;;1.10;86.93
66176;BME280;52977;44.816;20.538;2023-01-26T09:15:30;100020.75;;;0.66;87.88
66176;BME280;52977;44.816;20.538;2023-01-26T09:17:56;100103.97;;;1.00;90.24
66176;BME280;52977;44.816;20.538;2023-01-26T09:20:23;100078.41;;;1.19;88.48
66176;BME280;52977;44.816;20.538;2023-01-26T09:22:49;100091.63;;;1.21;87.20
66176;BME280;52977;44.816;20.538;2023-01-26T09:25:15;100061.16;;;0.93;87.03
66176;BME280;52977;44.816;20.538;2023-01-26T09:27:41;100100.44;;;1.16;87.61
66176;BME280;52977;44.816;20.538;2023-01-26T09:30:09;100087.88;;;1.22;87.07
66176;BME280;52977;44.816;20.538;2023-01-26T09:32:35;99982.09;;;0.28;88.65
66176;BME280;52977;44.816;20.538;2023-01-26T09:35:02;100079.84;;;0.83;90.21
66176;BME280;52977;44.816;20.538;2023-01-26T09:37:28;100081.59;;;0.94;90.68
66176;BME280;52977;44.816;20.538;2023-01-26T09:39:54;100043.97;;;0.94;90.06
66176;BME280;52977;44.816;20.538;2023-01-26T09:50:26;100071.56;;;1.56;83.74
66176;BME280;52977;44.816;20.538;2023-01-26T09:52:58;100060.31;;;1.59;84.31
66176;BME280;52977;44.816;20.538;2023-01-26T09:55:27;100067.72;;;1.74;83.15
66176;BME280;52977;44.816;20.538;2023-01-26T09:58:08;100050.69;;;1.96;82.29
66176;BME280;52977;44.816;20.538;2023-01-26T10:00:51;100058.28;;;2.36;79.88
66176;BME280;52977;44.816;20.538;2023-01-26T10:04:08;100059.16;;;1.82;79.95
66176;BME280;52977;44.816;20.538;2023-01-26T10:06:35;100058.66;;;1.85;80.11
66176;BME280;52977;44.816;20.538;2023-01-26T10:09:43;100044.00;;;1.71;79.93
66176;BME280;52977;44.816;20.538;2023-01-26T10:12:30;100032.06;;;1.62;79.81
66176;BME280;52977;44.816;20.538;2023-01-26T10:15:18;100027.38;;;1.52;80.21
66176;BME280;52977;44.816;20.538;2023-01-26T10:17:47;100032.53;;;1.53;80.09
66176;BME280;52977;44.816;20.538;2023-01-26T10:20:35;99962.72;;;1.14;79.70
66176;BME280;52977;44.816;20.538;2023-01-26T10:23:09;100008.63;;;1.30;80.20
66176;BME280;52977;44.816;20.538;2023-01-26T10:25:40;99950.03;;;0.82;80.60
66176;BME280;52977;44.816;20.538;2023-01-26T10:28:15;100018.72;;;1.17;81.54
66176;BME280;52977;44.816;20.538;2023-01-26T10:30:44;99997.03;;;1.29;80.92
66176;BME280;52977;44.816;20.538;2023-01-26T10:33:18;99982.63;;;1.13;80.83
66176;BME280;52977;44.816;20.538;2023-01-26T10:35:45;99984.28;;;1.19;81.39
66176;BME280;52977;44.816;20.538;2023-01-26T10:41:25;100001.78;;;1.77;79.84
66176;BME280;52977;44.816;20.538;2023-01-26T10:43:55;99986.22;;;1.79;79.87
66176;BME280;52977;44.816;20.538;2023-01-26T10:46:34;99985.31;;;1.68;80.80
66176;BME280;52977;44.816;20.538;2023-01-26T10:49:13;99976.34;;;1.30;81.86
66176;BME280;52977;44.816;20.538;2023-01-26T10:51:43;99933.00;;;1.26;80.99
66176;BME280;52977;44.816;20.538;2023-01-26T10:56:45;99975.66;;;1.72;80.08
66176;BME280;52977;44.816;20.538;2023-01-26T10:59:24;99941.06;;;1.26;80.86
66176;BME280;52977;44.816;20.538;2023-01-26T11:01:56;99898.69;;;1.11;80.90
66176;BME280;52977;44.816;20.538;2023-01-26T11:04:24;99892.59;;;1.21;79.93
66176;BME280;52977;44.816;20.538;2023-01-26T11:06:51;99952.88;;;1.52;81.07
66176;BME280;52977;44.816;20.538;2023-01-26T11:09:27;99947.31;;;1.64;80.80
66176;BME280;52977;44.816;20.538;2023-01-26T11:12:01;99949.38;;;1.25;82.15
66176;BME280;52977;44.816;20.538;2023-01-26T11:14:29;99908.19;;;1.19;82.40
66176;BME280;52977;44.816;20.538;2023-01-26T11:17:00;99885.09;;;0.96;83.01
66176;BME280;52977;44.816;20.538;2023-01-26T11:22:04;99921.72;;;1.62;81.63
66176;BME280;52977;44.816;20.538;2023-01-26T11:24:40;99908.31;;;1.34;81.68
66176;BME280;52977;44.816;20.538;2023-01-26T11:27:24;99914.03;;;1.43;81.61
66176;BME280;52977;44.816;20.538;2023-01-26T11:32:53;99912.13;;;1.39;82.28
66176;BME280;52977;44.816;20.538;2023-01-26T11:38:42;99835.59;;;1.19;81.22
66176;BME280;52977;44.816;20.538;2023-01-26T11:44:05;99906.41;;;1.67;81.01
66176;BME280;52977;44.816;20.538;2023-01-26T11:49:58;99897.22;;;1.58;82.01
66176;BME280;52977;44.816;20.538;2023-01-26T12:01:17;99867.63;;;1.58;82.80
66176;BME280;52977;44.816;20.538;2023-01-26T12:03:50;99834.13;;;1.44;83.62
66176;BME280;52977;44.816;20.538;2023-01-26T12:06:36;99878.28;;;1.80;84.36
66176;BME280;52977;44.816;20.538;2023-01-26T12:09:05;99843.31;;;1.43;85.78
66176;BME280;52977;44.816;20.538;2023-01-26T12:12:03;99867.78;;;1.46;87.41
66176;BME280;52977;44.816;20.538;2023-01-26T12:14:53;99877.16;;;1.39;90.11
66176;BME280;52977;44.816;20.538;2023-01-26T12:17:29;99875.59;;;1.43;90.47
66176;BME280;52977;44.816;20.538;2023-01-26T12:23:05;99875.88;;;1.14;96.89
66176;BME280;52977;44.816;20.538;2023-01-26T12:25:38;99848.31;;;0.96;99.41
66176;BME280;52977;44.816;20.538;2023-01-26T12:34:11;99859.69;;;1.41;96.34
66176;BME280;52977;44.816;20.538;2023-01-26T12:36:43;99844.63;;;1.40;97.30
66176;BME280;52977;44.816;20.538;2023-01-26T12:39:37;99859.09;;;1.01;100.00
66176;BME280;52977;44.816;20.538;2023-01-26T12:44:56;99843.78;;;1.02;100.00
66176;BME280;52977;44.816;20.538;2023-01-26T12:47:49;99846.63;;;1.23;100.00
66176;BME280;52977;44.816;20.538;2023-01-26T12:53:12;99838.28;;;1.24;100.00
66176;BME280;52977;44.816;20.538;2023-01-26T12:58:36;99806.34;;;0.95;100.00
66176;BME280;52977;44.816;20.538;2023-01-26T13:01:11;99841.16;;;1.12;100.00
66176;BME280;52977;44.816;20.538;2023-01-26T13:03:42;99763.34;;;0.63;100.00
66176;BME280;52977;44.816;20.538;2023-01-26T13:11:06;99732.22;;;0.40;100.00
66176;BME280;52977;44.816;20.538;2023-01-26T13:13:51;99840.44;;;0.90;100.00
66176;BME280;52977;44.816;20.538;2023-01-26T13:18:52;99807.31;;;0.84;100.00
66176;BME280;52977;44.816;20.538;2023-01-26T13:21:42;99836.84;;;1.06;100.00
66176;BME280;52977;44.816;20.538;2023-01-26T13:26:56;99831.28;;;0.91;100.00
66176;BME280;52977;44.816;20.538;2023-01-26T13:34:41;99831.81;;;0.88;100.00
66176;BME280;52977;44.816;20.538;2023-01-26T13:40:27;99827.50;;;0.59;100.00
66176;BME280;52977;44.816;20.538;2023-01-26T13:48:48;99798.81;;;0.97;100.00
66176;BME280;52977;44.816;20.538;2023-01-26T13:51:23;99818.03;;;1.11;100.00
66176;BME280;52977;44.816;20.538;2023-01-26T13:53:56;99810.81;;;1.17;100.00
66176;BME280;52977;44.816;20.538;2023-01-26T13:56:37;99812.22;;;1.25;100.00
66176;BME280;52977;44.816;20.538;2023-01-26T13:59:07;99795.16;;;0.76;100.00
66176;BME280;52977;44.816;20.538;2023-01-26T14:01:40;99792.19;;;0.78;100.00
66176;BME280;52977;44.816;20.538;2023-01-26T14:04:13;99820.06;;;0.99;100.00
66176;BME280;52977;44.816;20.538;2023-01-26T14:06:41;99816.97;;;0.80;100.00
66176;BME280;52977;44.816;20.538;2023-01-26T14:09:11;99745.69;;;0.45;100.00
66176;BME280;52977;44.816;20.538;2023-01-26T14:11:39;99811.59;;;0.80;100.00
66176;BME280;52977;44.816;20.538;2023-01-26T14:14:05;99812.09;;;0.77;100.00
66176;BME280;52977;44.816;20.538;2023-01-26T14:16:42;99819.50;;;0.64;100.00
66176;BME280;52977;44.816;20.538;2023-01-26T14:22:00;99780.66;;;0.50;100.00
66176;BME280;52977;44.816;20.538;2023-01-26T14:26:54;99806.72;;;0.77;100.00
66176;BME280;52977;44.816;20.538;2023-01-26T14:29:23;99809.31;;;0.99;100.00
66176;BME280;52977;44.816;20.538;2023-01-26T14:31:51;99793.81;;;1.06;100.00
66176;BME280;52977;44.816;20.538;2023-01-26T14:34:22;99774.34;;;0.94;100.00
66176;BME280;52977;44.816;20.538;2023-01-26T14:37:07;99591.72;;;-0.75;100.00
66176;BME280;52977;44.816;20.538;2023-01-26T14:39:36;99785.78;;;0.79;100.00
66176;BME280;52977;44.816;20.538;2023-01-26T14:42:03;99753.53;;;0.51;100.00
66176;BME280;52977;44.816;20.538;2023-01-26T14:44:30;99806.59;;;0.94;100.00